sensor_id;sensor_type;location;lat;lon;timestamp;P1;durP1;ratioP1;P2;durP2;ratioP2
44098;SDS011;29762;50.086;14.364;2024-02-16T00:02:47;3.28;;;2.47;;
44098;SDS011;29762;50.086;14.364;2024-02-16T00:13:07;3.22;;;2.20;;
44098;SDS011;29762;50.086;14.364;2024-02-16T00:23:26;3.08;;;2.50;;
44098;SDS011;29762;50.086;14.364;2024-02-16T00:33:46;2.55;;;1.95;;
44098;SDS011;29762;50.086;14.364;2024-02-16T00:44:05;3.05;;;2.25;;
44098;SDS011;29762;50.086;14.364;2024-02-16T00:54:24;2.35;;;2.05;;
44098;SDS011;29762;50.086;14.364;2024-02-16T01:04:44;2.45;;;2.20;;
44098;SDS011;29762;50.086;14.364;2024-02-16T01:15:03;3.28;;;2.10;;
44098;SDS011;29762;50.086;14.364;2024-02-16T01:25:23;2.33;;;2.10;;
44098;SDS011;29762;50.086;14.364;2024-02-16T01:35:42;2.40;;;2.03;;
44098;SDS011;29762;50.086;14.364;2024-02-16T01:46:01;2.40;;;1.80;;
44098;SDS011;29762;50.086;14.364;2024-02-16T01:56:21;2.35;;;1.90;;
44098;SDS011;29762;50.086;14.364;2024-02-16T02:06:41;3.22;;;2.05;;
44098;SDS011;29762;50.086;14.364;2024-02-16T02:17:00;2.03;;;1.88;;
44098;SDS011;29762;50.086;14.364;2024-02-16T02:27:19;2.20;;;1.88;;
44098;SDS011;29762;50.086;14.364;2024-02-16T02:37:39;2.72;;;1.85;;
44098;SDS011;29762;50.086;14.364;2024-02-16T02:47:58;2.35;;;1.63;;
44098;SDS011;29762;50.086;14.364;2024-02-16T02:58:17;2.22;;;1.90;;
44098;SDS011;29762;50.086;14.364;2024-02-16T03:08:37;3.08;;;2.10;;
44098;SDS011;29762;50.086;14.364;2024-02-16T03:18:56;2.30;;;2.10;;
44098;SDS011;29762;50.086;14.364;2024-02-16T03:29:16;2.00;;;1.80;;
44098;SDS011;29762;50.086;14.364;2024-02-16T03:39:35;2.22;;;1.90;;
44098;SDS011;29762;50.086;14.364;2024-02-16T03:49:55;1.70;;;1.60;;
44098;SDS011;29762;50.086;14.364;2024-02-16T04:00:14;1.98;;;1.80;;
44098;SDS011;29762;50.086;14.364;2024-02-16T04:10:34;1.73;;;1.60;;
44098;SDS011;29762;50.086;14.364;2024-02-16T04:20:53;2.78;;;1.90;;
44098;SDS011;29762;50.086;14.364;2024-02-16T04:31:12;2.75;;;1.92;;
44098;SDS011;29762;50.086;14.364;2024-02-16T04:41:32;1.60;;;1.50;;
44098;SDS011;29762;50.086;14.364;2024-02-16T04:51:51;1.88;;;1.58;;
44098;SDS011;29762;50.086;14.364;2024-02-16T05:02:10;1.75;;;1.65;;
44098;SDS011;29762;50.086;14.364;2024-02-16T05:12:30;2.10;;;1.90;;
44098;SDS011;29762;50.086;14.364;2024-02-16T05:22:50;1.83;;;1.73;;
44098;SDS011;29762;50.086;14.364;2024-02-16T05:33:09;2.83;;;1.75;;
44098;SDS011;29762;50.086;14.364;2024-02-16T05:43:28;1.80;;;1.58;;
44098;SDS011;29762;50.086;14.364;2024-02-16T05:53:48;26.52;;;6.22;;
44098;SDS011;29762;50.086;14.364;2024-02-16T06:04:07;13.15;;;4.55;;
44098;SDS011;29762;50.086;14.364;2024-02-16T06:14:26;16.60;;;4.50;;
44098;SDS011;29762;50.086;14.364;2024-02-16T06:24:45;12.32;;;4.47;;
44098;SDS011;29762;50.086;14.364;2024-02-16T06:35:05;11.00;;;3.83;;
44098;SDS011;29762;50.086;14.364;2024-02-16T06:45:26;12.00;;;4.03;;
44098;SDS011;29762;50.086;14.364;2024-02-16T06:55:45;10.80;;;3.80;;
44098;SDS011;29762;50.086;14.364;2024-02-16T07:06:05;10.68;;;3.72;;
44098;SDS011;29762;50.086;14.364;2024-02-16T07:16:28;9.02;;;3.83;;
44098;SDS011;29762;50.086;14.364;2024-02-16T07:26:48;9.50;;;3.15;;
44098;SDS011;29762;50.086;14.364;2024-02-16T07:37:07;9.70;;;3.75;;
44098;SDS011;29762;50.086;14.364;2024-02-16T07:47:28;13.45;;;3.90;;
44098;SDS011;29762;50.086;14.364;2024-02-16T07:57:47;7.80;;;3.72;;
44098;SDS011;29762;50.086;14.364;2024-02-16T08:08:07;7.07;;;3.65;;
44098;SDS011;29762;50.086;14.364;2024-02-16T08:18:27;7.63;;;3.47;;
44098;SDS011;29762;50.086;14.364;2024-02-16T08:28:46;8.05;;;3.67;;
44098;SDS011;29762;50.086;14.364;2024-02-16T08:39:05;6.57;;;3.20;;
44098;SDS011;29762;50.086;14.364;2024-02-16T08:49:26;8.00;;;3.72;;
44098;SDS011;29762;50.086;14.364;2024-02-16T08:59:46;6.30;;;3.38;;
44098;SDS011;29762;50.086;14.364;2024-02-16T09:10:07;17.67;;;14.77;;
44098;SDS011;29762;50.086;14.364;2024-02-16T09:20:27;15.07;;;13.48;;
44098;SDS011;29762;50.086;14.364;2024-02-16T09:30:47;12.23;;;10.88;;
44098;SDS011;29762;50.086;14.364;2024-02-16T09:41:06;8.23;;;6.93;;
44098;SDS011;29762;50.086;14.364;2024-02-16T09:51:26;6.65;;;5.60;;
44098;SDS011;29762;50.086;14.364;2024-02-16T10:01:45;10.10;;;6.50;;
44098;SDS011;29762;50.086;14.364;2024-02-16T10:12:05;7.18;;;5.70;;
44098;SDS011;29762;50.086;14.364;2024-02-16T10:22:24;6.63;;;5.88;;
44098;SDS011;29762;50.086;14.364;2024-02-16T10:32:44;5.90;;;5.28;;
44098;SDS011;29762;50.086;14.364;2024-02-16T10:43:05;8.20;;;5.47;;
44098;SDS011;29762;50.086;14.364;2024-02-16T10:53:26;8.73;;;5.35;;
44098;SDS011;29762;50.086;14.364;2024-02-16T11:03:46;6.13;;;5.25;;
44098;SDS011;29762;50.086;14.364;2024-02-16T11:14:13;7.50;;;5.40;;
44098;SDS011;29762;50.086;14.364;2024-02-16T11:24:34;5.80;;;5.18;;
44098;SDS011;29762;50.086;14.364;2024-02-16T11:34:53;7.60;;;5.00;;
44098;SDS011;29762;50.086;14.364;2024-02-16T11:45:13;5.93;;;5.03;;
44098;SDS011;29762;50.086;14.364;2024-02-16T11:55:33;6.10;;;5.20;;
44098;SDS011;29762;50.086;14.364;2024-02-16T12:05:53;6.80;;;4.93;;
44098;SDS011;29762;50.086;14.364;2024-02-16T12:27:30;8.05;;;4.93;;
44098;SDS011;29762;50.086;14.364;2024-02-16T12:37:50;7.22;;;5.07;;
44098;SDS011;29762;50.086;14.364;2024-02-16T12:48:09;9.05;;;5.45;;
44098;SDS011;29762;50.086;14.364;2024-02-16T12:58:29;9.35;;;5.70;;
44098;SDS011;29762;50.086;14.364;2024-02-16T13:08:49;7.93;;;5.63;;
44098;SDS011;29762;50.086;14.364;2024-02-16T13:19:09;9.55;;;7.40;;
44098;SDS011;29762;50.086;14.364;2024-02-16T13:29:29;11.75;;;9.68;;
44098;SDS011;29762;50.086;14.364;2024-02-16T13:39:48;9.38;;;8.48;;
44098;SDS011;29762;50.086;14.364;2024-02-16T13:50:09;10.95;;;8.90;;
44098;SDS011;29762;50.086;14.364;2024-02-16T14:00:28;11.63;;;9.57;;
44098;SDS011;29762;50.086;14.364;2024-02-16T14:10:48;11.95;;;9.93;;
44098;SDS011;29762;50.086;14.364;2024-02-16T14:21:07;11.02;;;9.60;;
44098;SDS011;29762;50.086;14.364;2024-02-16T14:31:26;11.27;;;9.25;;
44098;SDS011;29762;50.086;14.364;2024-02-16T14:41:46;13.48;;;11.05;;
44098;SDS011;29762;50.086;14.364;2024-02-16T14:52:05;13.25;;;10.63;;
44098;SDS011;29762;50.086;14.364;2024-02-16T15:02:26;13.02;;;9.90;;
44098;SDS011;29762;50.086;14.364;2024-02-16T15:12:45;9.52;;;8.20;;
44098;SDS011;29762;50.086;14.364;2024-02-16T15:23:05;84.45;;;33.35;;
44098;SDS011;29762;50.086;14.364;2024-02-16T15:33:24;34.67;;;15.55;;
44098;SDS011;29762;50.086;14.364;2024-02-16T15:43:43;30.60;;;13.95;;
44098;SDS011;29762;50.086;14.364;2024-02-16T15:54:03;24.35;;;11.95;;
44098;SDS011;29762;50.086;14.364;2024-02-16T16:04:23;20.85;;;10.15;;
44098;SDS011;29762;50.086;14.364;2024-02-16T16:14:42;18.98;;;9.57;;
44098;SDS011;29762;50.086;14.364;2024-02-16T16:25:02;16.20;;;9.15;;
44098;SDS011;29762;50.086;14.364;2024-02-16T16:35:23;17.13;;;8.73;;
44098;SDS011;29762;50.086;14.364;2024-02-16T16:45:42;14.10;;;8.25;;
44098;SDS011;29762;50.086;14.364;2024-02-16T16:56:01;13.35;;;8.32;;
44098;SDS011;29762;50.086;14.364;2024-02-16T17:06:21;13.70;;;8.10;;
44098;SDS011;29762;50.086;14.364;2024-02-16T17:16:42;17.42;;;9.00;;
44098;SDS011;29762;50.086;14.364;2024-02-16T17:27:02;15.32;;;7.95;;
44098;SDS011;29762;50.086;14.364;2024-02-16T17:37:22;13.57;;;7.57;;
44098;SDS011;29762;50.086;14.364;2024-02-16T17:47:41;12.32;;;6.88;;
44098;SDS011;29762;50.086;14.364;2024-02-16T17:58:00;11.00;;;7.13;;
44098;SDS011;29762;50.086;14.364;2024-02-16T18:08:22;15.43;;;6.70;;
44098;SDS011;29762;50.086;14.364;2024-02-16T18:18:42;15.27;;;6.50;;
44098;SDS011;29762;50.086;14.364;2024-02-16T18:29:01;9.93;;;6.63;;
44098;SDS011;29762;50.086;14.364;2024-02-16T18:39:21;11.30;;;6.32;;
44098;SDS011;29762;50.086;14.364;2024-02-16T18:49:43;11.52;;;5.95;;
44098;SDS011;29762;50.086;14.364;2024-02-16T19:00:02;13.95;;;7.70;;
44098;SDS011;29762;50.086;14.364;2024-02-16T19:10:24;9.10;;;6.20;;
44098;SDS011;29762;50.086;14.364;2024-02-16T19:20:46;9.05;;;6.20;;
44098;SDS011;29762;50.086;14.364;2024-02-16T19:31:06;11.05;;;6.28;;
44098;SDS011;29762;50.086;14.364;2024-02-16T19:41:26;11.05;;;6.32;;
44098;SDS011;29762;50.086;14.364;2024-02-16T19:51:46;10.20;;;5.75;;
44098;SDS011;29762;50.086;14.364;2024-02-16T20:02:05;10.75;;;5.90;;
44098;SDS011;29762;50.086;14.364;2024-02-16T20:12:25;8.98;;;5.60;;
44098;SDS011;29762;50.086;14.364;2024-02-16T20:22:45;11.10;;;5.55;;
44098;SDS011;29762;50.086;14.364;2024-02-16T20:33:04;7.22;;;5.75;;
44098;SDS011;29762;50.086;14.364;2024-02-16T20:43:24;8.57;;;5.53;;
44098;SDS011;29762;50.086;14.364;2024-02-16T20:53:44;8.52;;;5.20;;
44098;SDS011;29762;50.086;14.364;2024-02-16T21:04:03;6.75;;;4.72;;
44098;SDS011;29762;50.086;14.364;2024-02-16T21:14:23;8.60;;;4.88;;
44098;SDS011;29762;50.086;14.364;2024-02-16T21:24:43;8.20;;;4.95;;
44098;SDS011;29762;50.086;14.364;2024-02-16T21:35:02;7.45;;;5.07;;
44098;SDS011;29762;50.086;14.364;2024-02-16T21:45:23;6.03;;;4.47;;
44098;SDS011;29762;50.086;14.364;2024-02-16T21:55:42;7.15;;;4.75;;
44098;SDS011;29762;50.086;14.364;2024-02-16T22:06:01;7.32;;;4.65;;
44098;SDS011;29762;50.086;14.364;2024-02-16T22:16:24;6.70;;;4.40;;
44098;SDS011;29762;50.086;14.364;2024-02-16T22:26:44;7.85;;;4.53;;
44098;SDS011;29762;50.086;14.364;2024-02-16T22:37:03;7.30;;;4.70;;
44098;SDS011;29762;50.086;14.364;2024-02-16T22:47:22;5.78;;;4.40;;
44098;SDS011;29762;50.086;14.364;2024-02-16T22:57:42;6.30;;;4.47;;
44098;SDS011;29762;50.086;14.364;2024-02-16T23:08:01;6.75;;;4.70;;
44098;SDS011;29762;50.086;14.364;2024-02-16T23:18:22;5.40;;;4.25;;
44098;SDS011;29762;50.086;14.364;2024-02-16T23:28:41;4.70;;;3.70;;
44098;SDS011;29762;50.086;14.364;2024-02-16T23:39:01;5.78;;;4.43;;
44098;SDS011;29762;50.086;14.364;2024-02-16T23:49:20;6.03;;;4.25;;
44098;SDS011;29762;50.086;14.364;2024-02-16T23:59:39;5.80;;;3.97;;
